sensor_id;sensor_type;location;lat;lon;timestamp;temperature;humidity
59881;DHT22;45751;51.380;10.326;2023-05-10T00:01:27;15.50;49.90
59881;DHT22;45751;51.380;10.326;2023-05-10T00:03:54;15.40;50.00
59881;DHT22;45751;51.380;10.326;2023-05-10T00:06:21;15.40;50.10
59881;DHT22;45751;51.380;10.326;2023-05-10T00:08:48;15.40;50.10
59881;DHT22;45751;51.380;10.326;2023-05-10T00:11:15;15.40;50.40
59881;DHT22;45751;51.380;10.326;2023-05-10T00:13:42;15.40;50.70
59881;DHT22;45751;51.380;10.326;2023-05-10T00:16:09;15.40;50.60
59881;DHT22;45751;51.380;10.326;2023-05-10T00:18:36;15.40;50.90
59881;DHT22;45751;51.380;10.326;2023-05-10T00:21:03;15.40;51.00
59881;DHT22;45751;51.380;10.326;2023-05-10T00:23:30;15.40;51.20
59881;DHT22;45751;51.380;10.326;2023-05-10T00:25:57;15.40;51.50
59881;DHT22;45751;51.380;10.326;2023-05-10T00:28:23;15.40;51.40
59881;DHT22;45751;51.380;10.326;2023-05-10T00:30:50;15.40;51.20
59881;DHT22;45751;51.380;10.326;2023-05-10T00:33:17;15.30;51.20
59881;DHT22;45751;51.380;10.326;2023-05-10T00:35:45;15.30;51.40
59881;DHT22;45751;51.380;10.326;2023-05-10T00:38:11;15.30;51.50
59881;DHT22;45751;51.380;10.326;2023-05-10T00:40:38;15.20;51.50
59881;DHT22;45751;51.380;10.326;2023-05-10T00:43:10;15.20;51.80
59881;DHT22;45751;51.380;10.326;2023-05-10T00:45:37;15.20;52.10
59881;DHT22;45751;51.380;10.326;2023-05-10T00:48:06;15.20;52.20
59881;DHT22;45751;51.380;10.326;2023-05-10T00:50:33;15.10;52.00
59881;DHT22;45751;51.380;10.326;2023-05-10T00:53:01;15.10;52.20
59881;DHT22;45751;51.380;10.326;2023-05-10T00:55:28;15.00;52.40
59881;DHT22;45751;51.380;10.326;2023-05-10T00:57:55;15.00;52.60
59881;DHT22;45751;51.380;10.326;2023-05-10T01:00:22;15.00;52.70
59881;DHT22;45751;51.380;10.326;2023-05-10T01:02:50;15.00;52.70
59881;DHT22;45751;51.380;10.326;2023-05-10T01:05:17;15.00;52.50
59881;DHT22;45751;51.380;10.326;2023-05-10T01:07:44;15.00;52.50
59881;DHT22;45751;51.380;10.326;2023-05-10T01:10:11;15.00;52.60
59881;DHT22;45751;51.380;10.326;2023-05-10T01:12:40;15.00;53.00
59881;DHT22;45751;51.380;10.326;2023-05-10T01:15:08;15.00;52.90
59881;DHT22;45751;51.380;10.326;2023-05-10T01:17:39;15.00;53.00
59881;DHT22;45751;51.380;10.326;2023-05-10T01:20:07;15.00;53.30
59881;DHT22;45751;51.380;10.326;2023-05-10T01:31:30;14.90;53.40
59881;DHT22;45751;51.380;10.326;2023-05-10T01:34:41;14.90;53.50
59881;DHT22;45751;51.380;10.326;2023-05-10T01:37:04;14.80;53.60
59881;DHT22;45751;51.380;10.326;2023-05-10T01:39:46;14.80;53.50
59881;DHT22;45751;51.380;10.326;2023-05-10T01:42:20;14.80;53.70
59881;DHT22;45751;51.380;10.326;2023-05-10T01:45:00;14.80;54.20
59881;DHT22;45751;51.380;10.326;2023-05-10T01:47:44;14.80;54.00
59881;DHT22;45751;51.380;10.326;2023-05-10T01:50:18;14.80;54.30
59881;DHT22;45751;51.380;10.326;2023-05-10T01:52:54;14.80;54.60
59881;DHT22;45751;51.380;10.326;2023-05-10T01:55:26;14.70;54.40
59881;DHT22;45751;51.380;10.326;2023-05-10T01:58:05;14.70;54.80
59881;DHT22;45751;51.380;10.326;2023-05-10T02:00:33;14.70;54.80
59881;DHT22;45751;51.380;10.326;2023-05-10T02:03:05;14.70;54.70
59881;DHT22;45751;51.380;10.326;2023-05-10T02:05:34;14.70;55.10
59881;DHT22;45751;51.380;10.326;2023-05-10T02:08:05;14.70;55.20
59881;DHT22;45751;51.380;10.326;2023-05-10T02:10:36;14.70;55.60
59881;DHT22;45751;51.380;10.326;2023-05-10T02:13:05;14.70;55.30
59881;DHT22;45751;51.380;10.326;2023-05-10T02:15:34;14.70;55.30
59881;DHT22;45751;51.380;10.326;2023-05-10T02:18:02;14.70;55.20
59881;DHT22;45751;51.380;10.326;2023-05-10T02:20:31;14.60;55.20
59881;DHT22;45751;51.380;10.326;2023-05-10T02:22:59;14.60;55.20
59881;DHT22;45751;51.380;10.326;2023-05-10T02:25:29;14.60;55.40
59881;DHT22;45751;51.380;10.326;2023-05-10T02:28:00;14.60;56.00
59881;DHT22;45751;51.380;10.326;2023-05-10T02:30:28;14.50;56.40
59881;DHT22;45751;51.380;10.326;2023-05-10T02:32:57;14.50;56.60
59881;DHT22;45751;51.380;10.326;2023-05-10T02:35:26;14.50;56.80
59881;DHT22;45751;51.380;10.326;2023-05-10T02:37:54;14.50;57.00
59881;DHT22;45751;51.380;10.326;2023-05-10T02:40:23;14.50;57.50
59881;DHT22;45751;51.380;10.326;2023-05-10T02:42:55;14.50;58.10
59881;DHT22;45751;51.380;10.326;2023-05-10T02:45:26;14.50;58.90
59881;DHT22;45751;51.380;10.326;2023-05-10T02:47:55;14.50;59.50
59881;DHT22;45751;51.380;10.326;2023-05-10T02:50:22;14.50;60.20
59881;DHT22;45751;51.380;10.326;2023-05-10T02:52:56;14.40;60.70
59881;DHT22;45751;51.380;10.326;2023-05-10T02:55:27;14.40;61.60
59881;DHT22;45751;51.380;10.326;2023-05-10T02:58:00;14.40;63.00
59881;DHT22;45751;51.380;10.326;2023-05-10T03:00:28;14.40;64.30
59881;DHT22;45751;51.380;10.326;2023-05-10T03:02:56;14.40;65.70
59881;DHT22;45751;51.380;10.326;2023-05-10T03:05:23;14.30;66.50
59881;DHT22;45751;51.380;10.326;2023-05-10T03:07:51;14.30;68.70
59881;DHT22;45751;51.380;10.326;2023-05-10T03:10:19;14.30;70.30
59881;DHT22;45751;51.380;10.326;2023-05-10T03:13:31;14.20;70.90
59881;DHT22;45751;51.380;10.326;2023-05-10T03:16:10;14.20;73.30
59881;DHT22;45751;51.380;10.326;2023-05-10T03:18:53;14.10;75.40
59881;DHT22;45751;51.380;10.326;2023-05-10T03:21:22;14.10;76.80
59881;DHT22;45751;51.380;10.326;2023-05-10T03:23:59;14.00;77.70
59881;DHT22;45751;51.380;10.326;2023-05-10T03:26:27;14.00;79.70
59881;DHT22;45751;51.380;10.326;2023-05-10T03:29:06;14.00;82.00
59881;DHT22;45751;51.380;10.326;2023-05-10T03:31:34;13.90;83.60
59881;DHT22;45751;51.380;10.326;2023-05-10T03:34:01;13.90;84.80
59881;DHT22;45751;51.380;10.326;2023-05-10T03:36:28;14.00;86.60
59881;DHT22;45751;51.380;10.326;2023-05-10T03:38:55;13.90;87.90
59881;DHT22;45751;51.380;10.326;2023-05-10T03:41:22;13.80;87.70
59881;DHT22;45751;51.380;10.326;2023-05-10T03:43:49;13.80;87.90
59881;DHT22;45751;51.380;10.326;2023-05-10T03:46:15;13.70;89.00
59881;DHT22;45751;51.380;10.326;2023-05-10T03:48:43;13.70;90.10
59881;DHT22;45751;51.380;10.326;2023-05-10T03:51:10;13.70;90.50
59881;DHT22;45751;51.380;10.326;2023-05-10T03:53:38;13.70;90.70
59881;DHT22;45751;51.380;10.326;2023-05-10T03:56:05;13.70;91.20
59881;DHT22;45751;51.380;10.326;2023-05-10T03:58:32;13.70;91.30
59881;DHT22;45751;51.380;10.326;2023-05-10T04:00:59;13.60;91.50
59881;DHT22;45751;51.380;10.326;2023-05-10T04:03:26;13.70;91.30
59881;DHT22;45751;51.380;10.326;2023-05-10T04:06:00;13.60;91.20
59881;DHT22;45751;51.380;10.326;2023-05-10T04:08:28;13.60;91.00
59881;DHT22;45751;51.380;10.326;2023-05-10T04:11:09;13.60;91.10
59881;DHT22;45751;51.380;10.326;2023-05-10T04:13:37;13.60;91.40
59881;DHT22;45751;51.380;10.326;2023-05-10T04:16:04;13.50;91.90
59881;DHT22;45751;51.380;10.326;2023-05-10T04:18:31;13.50;92.30
59881;DHT22;45751;51.380;10.326;2023-05-10T04:20:58;13.50;92.50
59881;DHT22;45751;51.380;10.326;2023-05-10T04:23:26;13.40;92.70
59881;DHT22;45751;51.380;10.326;2023-05-10T04:25:59;13.50;92.50
59881;DHT22;45751;51.380;10.326;2023-05-10T04:28:26;13.40;92.30
59881;DHT22;45751;51.380;10.326;2023-05-10T04:31:00;13.40;92.20
59881;DHT22;45751;51.380;10.326;2023-05-10T04:33:26;13.50;92.20
59881;DHT22;45751;51.380;10.326;2023-05-10T04:35:53;13.50;92.00
59881;DHT22;45751;51.380;10.326;2023-05-10T04:38:20;13.50;91.90
59881;DHT22;45751;51.380;10.326;2023-05-10T04:40:47;13.50;92.20
59881;DHT22;45751;51.380;10.326;2023-05-10T04:43:14;13.50;92.50
59881;DHT22;45751;51.380;10.326;2023-05-10T04:45:40;13.50;92.80
59881;DHT22;45751;51.380;10.326;2023-05-10T04:48:07;13.50;93.10
59881;DHT22;45751;51.380;10.326;2023-05-10T04:50:34;13.50;93.60
59881;DHT22;45751;51.380;10.326;2023-05-10T04:53:01;13.50;94.10
59881;DHT22;45751;51.380;10.326;2023-05-10T04:55:28;13.50;94.80
59881;DHT22;45751;51.380;10.326;2023-05-10T04:57:55;13.50;95.30
59881;DHT22;45751;51.380;10.326;2023-05-10T05:00:23;13.60;95.70
59881;DHT22;45751;51.380;10.326;2023-05-10T05:02:51;13.60;96.20
59881;DHT22;45751;51.380;10.326;2023-05-10T05:05:18;13.60;96.90
59881;DHT22;45751;51.380;10.326;2023-05-10T05:07:45;13.60;96.80
59881;DHT22;45751;51.380;10.326;2023-05-10T05:10:12;13.60;97.60
59881;DHT22;45751;51.380;10.326;2023-05-10T05:12:39;13.60;97.40
59881;DHT22;45751;51.380;10.326;2023-05-10T05:15:06;13.60;96.60
59881;DHT22;45751;51.380;10.326;2023-05-10T05:17:35;13.60;96.70
59881;DHT22;45751;51.380;10.326;2023-05-10T05:20:03;13.60;97.30
59881;DHT22;45751;51.380;10.326;2023-05-10T05:22:30;13.50;97.70
59881;DHT22;45751;51.380;10.326;2023-05-10T05:24:57;13.50;97.30
59881;DHT22;45751;51.380;10.326;2023-05-10T05:27:24;13.50;96.60
59881;DHT22;45751;51.380;10.326;2023-05-10T05:29:56;13.50;97.50
59881;DHT22;45751;51.380;10.326;2023-05-10T05:32:24;13.50;97.30
59881;DHT22;45751;51.380;10.326;2023-05-10T05:34:51;13.50;97.60
59881;DHT22;45751;51.380;10.326;2023-05-10T05:37:19;13.40;97.50
59881;DHT22;45751;51.380;10.326;2023-05-10T05:39:47;13.40;98.80
59881;DHT22;45751;51.380;10.326;2023-05-10T05:42:14;13.30;98.60
59881;DHT22;45751;51.380;10.326;2023-05-10T05:44:43;13.20;98.90
59881;DHT22;45751;51.380;10.326;2023-05-10T05:47:10;13.20;99.90
59881;DHT22;45751;51.380;10.326;2023-05-10T05:49:37;13.20;98.50
59881;DHT22;45751;51.380;10.326;2023-05-10T05:52:04;13.10;98.90
59881;DHT22;45751;51.380;10.326;2023-05-10T05:54:31;13.10;99.20
59881;DHT22;45751;51.380;10.326;2023-05-10T05:56:58;13.00;99.60
59881;DHT22;45751;51.380;10.326;2023-05-10T05:59:27;13.00;99.90
59881;DHT22;45751;51.380;10.326;2023-05-10T06:01:54;13.00;99.90
59881;DHT22;45751;51.380;10.326;2023-05-10T06:04:21;12.90;99.90
59881;DHT22;45751;51.380;10.326;2023-05-10T06:06:48;12.90;99.90
59881;DHT22;45751;51.380;10.326;2023-05-10T06:09:15;12.90;99.90
59881;DHT22;45751;51.380;10.326;2023-05-10T06:11:42;12.90;99.90
59881;DHT22;45751;51.380;10.326;2023-05-10T06:14:10;12.90;99.90
59881;DHT22;45751;51.380;10.326;2023-05-10T06:16:37;13.00;99.90
59881;DHT22;45751;51.380;10.326;2023-05-10T06:19:04;13.00;99.90
59881;DHT22;45751;51.380;10.326;2023-05-10T06:21:31;13.10;99.90
59881;DHT22;45751;51.380;10.326;2023-05-10T06:23:58;13.10;99.90
59881;DHT22;45751;51.380;10.326;2023-05-10T06:26:25;13.20;99.90
59881;DHT22;45751;51.380;10.326;2023-05-10T06:28:52;13.20;99.90
59881;DHT22;45751;51.380;10.326;2023-05-10T06:31:18;13.30;99.90
59881;DHT22;45751;51.380;10.326;2023-05-10T06:33:45;13.30;99.90
59881;DHT22;45751;51.380;10.326;2023-05-10T06:36:12;13.30;99.90
59881;DHT22;45751;51.380;10.326;2023-05-10T06:38:39;13.30;99.90
59881;DHT22;45751;51.380;10.326;2023-05-10T06:41:06;13.40;99.90
59881;DHT22;45751;51.380;10.326;2023-05-10T06:43:33;13.40;99.90
59881;DHT22;45751;51.380;10.326;2023-05-10T06:46:00;13.40;99.90
59881;DHT22;45751;51.380;10.326;2023-05-10T06:48:27;13.40;99.90
59881;DHT22;45751;51.380;10.326;2023-05-10T06:50:54;13.40;99.90
59881;DHT22;45751;51.380;10.326;2023-05-10T06:53:21;13.40;99.90
59881;DHT22;45751;51.380;10.326;2023-05-10T06:55:49;13.40;99.90
59881;DHT22;45751;51.380;10.326;2023-05-10T06:58:16;13.50;99.90
59881;DHT22;45751;51.380;10.326;2023-05-10T07:00:43;13.50;99.90
59881;DHT22;45751;51.380;10.326;2023-05-10T07:03:11;13.50;99.90
59881;DHT22;45751;51.380;10.326;2023-05-10T07:05:38;13.50;99.90
59881;DHT22;45751;51.380;10.326;2023-05-10T07:08:05;13.50;99.90
59881;DHT22;45751;51.380;10.326;2023-05-10T07:10:33;13.60;99.90
59881;DHT22;45751;51.380;10.326;2023-05-10T07:12:59;13.50;99.90
59881;DHT22;45751;51.380;10.326;2023-05-10T07:15:28;13.60;99.90
59881;DHT22;45751;51.380;10.326;2023-05-10T07:17:55;13.60;99.90
59881;DHT22;45751;51.380;10.326;2023-05-10T07:20:22;13.60;99.90
59881;DHT22;45751;51.380;10.326;2023-05-10T07:22:49;13.60;99.90
59881;DHT22;45751;51.380;10.326;2023-05-10T07:25:16;13.70;99.90
59881;DHT22;45751;51.380;10.326;2023-05-10T07:27:43;13.70;99.90
59881;DHT22;45751;51.380;10.326;2023-05-10T07:30:10;13.70;99.90
59881;DHT22;45751;51.380;10.326;2023-05-10T07:32:37;13.70;99.90
59881;DHT22;45751;51.380;10.326;2023-05-10T07:35:06;13.70;99.90
59881;DHT22;45751;51.380;10.326;2023-05-10T07:37:33;13.70;99.90
59881;DHT22;45751;51.380;10.326;2023-05-10T07:40:00;13.70;99.90
59881;DHT22;45751;51.380;10.326;2023-05-10T07:42:27;13.70;99.90
59881;DHT22;45751;51.380;10.326;2023-05-10T07:44:54;13.60;99.90
59881;DHT22;45751;51.380;10.326;2023-05-10T07:47:20;13.70;99.90
59881;DHT22;45751;51.380;10.326;2023-05-10T07:49:47;13.60;99.90
59881;DHT22;45751;51.380;10.326;2023-05-10T07:52:14;13.60;99.90
59881;DHT22;45751;51.380;10.326;2023-05-10T07:54:42;13.60;99.90
59881;DHT22;45751;51.380;10.326;2023-05-10T07:57:08;13.60;99.90
59881;DHT22;45751;51.380;10.326;2023-05-10T07:59:35;13.50;99.90
59881;DHT22;45751;51.380;10.326;2023-05-10T08:02:03;13.50;99.90
59881;DHT22;45751;51.380;10.326;2023-05-10T08:04:29;13.50;99.90
59881;DHT22;45751;51.380;10.326;2023-05-10T08:06:56;13.40;99.90
59881;DHT22;45751;51.380;10.326;2023-05-10T08:09:23;13.40;99.90
59881;DHT22;45751;51.380;10.326;2023-05-10T08:11:51;13.50;99.90
59881;DHT22;45751;51.380;10.326;2023-05-10T08:14:17;13.50;99.90
59881;DHT22;45751;51.380;10.326;2023-05-10T08:16:44;13.50;99.90
59881;DHT22;45751;51.380;10.326;2023-05-10T08:19:11;13.50;99.90
59881;DHT22;45751;51.380;10.326;2023-05-10T08:21:38;13.60;99.90
59881;DHT22;45751;51.380;10.326;2023-05-10T08:24:07;13.60;99.90
59881;DHT22;45751;51.380;10.326;2023-05-10T08:26:34;13.50;99.90
59881;DHT22;45751;51.380;10.326;2023-05-10T08:29:01;13.40;99.90
59881;DHT22;45751;51.380;10.326;2023-05-10T08:31:33;13.40;99.90
59881;DHT22;45751;51.380;10.326;2023-05-10T08:34:02;13.30;99.90
59881;DHT22;45751;51.380;10.326;2023-05-10T08:36:28;13.20;99.90
59881;DHT22;45751;51.380;10.326;2023-05-10T08:38:55;13.20;99.90
59881;DHT22;45751;51.380;10.326;2023-05-10T08:41:23;13.20;99.90
59881;DHT22;45751;51.380;10.326;2023-05-10T08:43:53;13.30;99.90
59881;DHT22;45751;51.380;10.326;2023-05-10T08:46:22;13.30;99.90
59881;DHT22;45751;51.380;10.326;2023-05-10T08:48:51;13.40;99.90
59881;DHT22;45751;51.380;10.326;2023-05-10T08:51:22;13.40;99.90
59881;DHT22;45751;51.380;10.326;2023-05-10T08:53:49;13.50;99.90
59881;DHT22;45751;51.380;10.326;2023-05-10T08:56:16;13.50;99.90
59881;DHT22;45751;51.380;10.326;2023-05-10T08:58:44;13.50;99.90
59881;DHT22;45751;51.380;10.326;2023-05-10T09:01:12;13.60;99.90
59881;DHT22;45751;51.380;10.326;2023-05-10T09:03:40;13.70;99.90
59881;DHT22;45751;51.380;10.326;2023-05-10T09:06:07;13.70;99.90
59881;DHT22;45751;51.380;10.326;2023-05-10T09:08:36;13.80;99.90
59881;DHT22;45751;51.380;10.326;2023-05-10T09:11:03;13.80;99.90
59881;DHT22;45751;51.380;10.326;2023-05-10T09:13:30;13.80;99.90
59881;DHT22;45751;51.380;10.326;2023-05-10T09:15:57;13.80;99.90
59881;DHT22;45751;51.380;10.326;2023-05-10T09:18:39;13.80;99.90
59881;DHT22;45751;51.380;10.326;2023-05-10T09:21:06;13.90;99.90
59881;DHT22;45751;51.380;10.326;2023-05-10T09:23:33;13.90;99.90
59881;DHT22;45751;51.380;10.326;2023-05-10T09:26:07;14.00;99.90
59881;DHT22;45751;51.380;10.326;2023-05-10T09:28:34;14.00;99.90
59881;DHT22;45751;51.380;10.326;2023-05-10T09:31:16;14.00;99.90
59881;DHT22;45751;51.380;10.326;2023-05-10T09:33:47;14.10;99.90
59881;DHT22;45751;51.380;10.326;2023-05-10T09:36:15;14.10;99.90
59881;DHT22;45751;51.380;10.326;2023-05-10T09:38:49;14.10;99.90
59881;DHT22;45751;51.380;10.326;2023-05-10T09:41:22;14.10;99.90
59881;DHT22;45751;51.380;10.326;2023-05-10T09:43:50;14.20;99.90
59881;DHT22;45751;51.380;10.326;2023-05-10T09:46:17;14.10;99.90
59881;DHT22;45751;51.380;10.326;2023-05-10T09:48:47;14.20;99.90
59881;DHT22;45751;51.380;10.326;2023-05-10T09:51:24;14.30;99.90
59881;DHT22;45751;51.380;10.326;2023-05-10T09:54:10;14.30;99.90
59881;DHT22;45751;51.380;10.326;2023-05-10T09:56:38;14.40;99.90
59881;DHT22;45751;51.380;10.326;2023-05-10T09:59:09;14.40;99.90
59881;DHT22;45751;51.380;10.326;2023-05-10T10:01:37;14.40;99.90
59881;DHT22;45751;51.380;10.326;2023-05-10T10:04:05;14.40;99.90
59881;DHT22;45751;51.380;10.326;2023-05-10T10:06:39;14.40;99.90
59881;DHT22;45751;51.380;10.326;2023-05-10T10:09:07;14.50;99.90
59881;DHT22;45751;51.380;10.326;2023-05-10T10:11:36;14.50;99.90
59881;DHT22;45751;51.380;10.326;2023-05-10T10:14:03;14.60;99.90
59881;DHT22;45751;51.380;10.326;2023-05-10T10:16:32;14.50;99.90
59881;DHT22;45751;51.380;10.326;2023-05-10T10:18:59;14.70;99.90
59881;DHT22;45751;51.380;10.326;2023-05-10T10:21:27;14.80;99.60
59881;DHT22;45751;51.380;10.326;2023-05-10T10:23:57;14.80;98.50
59881;DHT22;45751;51.380;10.326;2023-05-10T10:26:24;14.90;99.60
59881;DHT22;45751;51.380;10.326;2023-05-10T10:34:28;14.90;97.60
59881;DHT22;45751;51.380;10.326;2023-05-10T10:36:57;14.80;97.40
59881;DHT22;45751;51.380;10.326;2023-05-10T10:39:24;14.90;97.40
59881;DHT22;45751;51.380;10.326;2023-05-10T10:41:56;14.90;97.20
59881;DHT22;45751;51.380;10.326;2023-05-10T10:50:04;15.10;95.50
59881;DHT22;45751;51.380;10.326;2023-05-10T10:52:36;15.10;94.80
59881;DHT22;45751;51.380;10.326;2023-05-10T10:55:19;15.00;93.80
59881;DHT22;45751;51.380;10.326;2023-05-10T10:57:58;15.00;94.20
59881;DHT22;45751;51.380;10.326;2023-05-10T11:00:38;15.00;94.20
59881;DHT22;45751;51.380;10.326;2023-05-10T11:03:14;14.90;94.20
59881;DHT22;45751;51.380;10.326;2023-05-10T11:10:50;15.00;96.60
59881;DHT22;45751;51.380;10.326;2023-05-10T11:13:34;15.10;96.10
59881;DHT22;45751;51.380;10.326;2023-05-10T11:18:38;15.20;95.50
59881;DHT22;45751;51.380;10.326;2023-05-10T11:21:05;15.20;95.30
59881;DHT22;45751;51.380;10.326;2023-05-10T11:23:47;15.30;95.60
59881;DHT22;45751;51.380;10.326;2023-05-10T11:26:14;15.30;94.60
59881;DHT22;45751;51.380;10.326;2023-05-10T11:28:45;15.40;94.80
59881;DHT22;45751;51.380;10.326;2023-05-10T11:31:16;15.60;93.30
59881;DHT22;45751;51.380;10.326;2023-05-10T11:33:44;15.60;93.00
59881;DHT22;45751;51.380;10.326;2023-05-10T11:36:13;15.60;92.10
59881;DHT22;45751;51.380;10.326;2023-05-10T11:38:41;15.80;91.00
59881;DHT22;45751;51.380;10.326;2023-05-10T11:41:11;15.80;91.60
59881;DHT22;45751;51.380;10.326;2023-05-10T11:43:39;15.80;91.90
59881;DHT22;45751;51.380;10.326;2023-05-10T11:46:09;15.90;91.20
59881;DHT22;45751;51.380;10.326;2023-05-10T11:48:38;15.90;83.40
59881;DHT22;45751;51.380;10.326;2023-05-10T11:51:06;16.00;85.00
59881;DHT22;45751;51.380;10.326;2023-05-10T11:53:34;16.00;84.90
59881;DHT22;45751;51.380;10.326;2023-05-10T11:56:08;16.00;86.90
59881;DHT22;45751;51.380;10.326;2023-05-10T11:58:37;16.10;85.00
59881;DHT22;45751;51.380;10.326;2023-05-10T12:01:05;16.10;84.70
59881;DHT22;45751;51.380;10.326;2023-05-10T12:03:33;16.00;85.30
59881;DHT22;45751;51.380;10.326;2023-05-10T12:06:02;16.00;86.90
59881;DHT22;45751;51.380;10.326;2023-05-10T12:08:30;16.00;87.30
59881;DHT22;45751;51.380;10.326;2023-05-10T12:11:08;16.10;86.20
59881;DHT22;45751;51.380;10.326;2023-05-10T12:13:43;16.10;85.50
59881;DHT22;45751;51.380;10.326;2023-05-10T12:16:17;16.10;86.50
59881;DHT22;45751;51.380;10.326;2023-05-10T12:18:47;16.20;84.30
59881;DHT22;45751;51.380;10.326;2023-05-10T12:21:15;16.30;85.40
59881;DHT22;45751;51.380;10.326;2023-05-10T12:23:42;16.40;87.10
59881;DHT22;45751;51.380;10.326;2023-05-10T12:26:09;16.50;87.50
59881;DHT22;45751;51.380;10.326;2023-05-10T12:28:37;16.60;86.70
59881;DHT22;45751;51.380;10.326;2023-05-10T12:31:06;16.60;88.30
59881;DHT22;45751;51.380;10.326;2023-05-10T12:33:41;16.80;83.00
59881;DHT22;45751;51.380;10.326;2023-05-10T12:36:10;16.90;80.90
59881;DHT22;45751;51.380;10.326;2023-05-10T12:38:39;16.90;81.40
59881;DHT22;45751;51.380;10.326;2023-05-10T12:41:10;16.90;82.50
59881;DHT22;45751;51.380;10.326;2023-05-10T12:43:38;16.90;83.20
59881;DHT22;45751;51.380;10.326;2023-05-10T12:46:10;17.00;79.90
59881;DHT22;45751;51.380;10.326;2023-05-10T12:48:38;17.00;78.90
59881;DHT22;45751;51.380;10.326;2023-05-10T12:51:05;17.10;78.00
59881;DHT22;45751;51.380;10.326;2023-05-10T12:53:36;17.10;79.30
59881;DHT22;45751;51.380;10.326;2023-05-10T12:56:03;17.20;79.70
59881;DHT22;45751;51.380;10.326;2023-05-10T12:58:30;17.20;79.90
59881;DHT22;45751;51.380;10.326;2023-05-10T13:01:02;17.30;78.70
59881;DHT22;45751;51.380;10.326;2023-05-10T13:03:29;17.30;76.70
59881;DHT22;45751;51.380;10.326;2023-05-10T13:05:57;17.30;77.10
59881;DHT22;45751;51.380;10.326;2023-05-10T13:08:24;17.40;75.80
59881;DHT22;45751;51.380;10.326;2023-05-10T13:10:51;17.40;73.10
59881;DHT22;45751;51.380;10.326;2023-05-10T13:13:18;17.40;72.00
59881;DHT22;45751;51.380;10.326;2023-05-10T13:15:45;17.50;72.10
59881;DHT22;45751;51.380;10.326;2023-05-10T13:18:12;17.50;70.80
59881;DHT22;45751;51.380;10.326;2023-05-10T13:20:38;17.50;70.90
59881;DHT22;45751;51.380;10.326;2023-05-10T13:23:05;17.50;70.70
59881;DHT22;45751;51.380;10.326;2023-05-10T13:25:32;17.60;68.60
59881;DHT22;45751;51.380;10.326;2023-05-10T13:28:01;17.60;69.00
59881;DHT22;45751;51.380;10.326;2023-05-10T13:30:28;17.60;69.40
59881;DHT22;45751;51.380;10.326;2023-05-10T13:32:55;17.70;68.70
59881;DHT22;45751;51.380;10.326;2023-05-10T13:35:23;17.70;67.70
59881;DHT22;45751;51.380;10.326;2023-05-10T13:37:49;17.80;67.90
59881;DHT22;45751;51.380;10.326;2023-05-10T13:40:16;17.90;66.20
59881;DHT22;45751;51.380;10.326;2023-05-10T13:42:44;18.00;65.70
59881;DHT22;45751;51.380;10.326;2023-05-10T13:45:11;18.10;65.60
59881;DHT22;45751;51.380;10.326;2023-05-10T13:47:38;18.20;66.30
59881;DHT22;45751;51.380;10.326;2023-05-10T13:50:06;18.30;64.60
59881;DHT22;45751;51.380;10.326;2023-05-10T13:52:33;18.40;64.30
59881;DHT22;45751;51.380;10.326;2023-05-10T13:55:00;18.30;63.70
59881;DHT22;45751;51.380;10.326;2023-05-10T13:57:27;18.30;63.00
59881;DHT22;45751;51.380;10.326;2023-05-10T13:59:55;18.40;62.20
59881;DHT22;45751;51.380;10.326;2023-05-10T14:02:23;18.40;61.60
59881;DHT22;45751;51.380;10.326;2023-05-10T14:04:51;18.30;61.10
59881;DHT22;45751;51.380;10.326;2023-05-10T14:07:18;18.30;62.30
59881;DHT22;45751;51.380;10.326;2023-05-10T14:09:45;18.30;62.10
59881;DHT22;45751;51.380;10.326;2023-05-10T14:12:12;18.20;63.60
59881;DHT22;45751;51.380;10.326;2023-05-10T14:14:41;18.20;65.30
59881;DHT22;45751;51.380;10.326;2023-05-10T14:17:07;18.20;66.90
59881;DHT22;45751;51.380;10.326;2023-05-10T14:19:37;18.20;65.30
59881;DHT22;45751;51.380;10.326;2023-05-10T14:22:05;18.20;65.00
59881;DHT22;45751;51.380;10.326;2023-05-10T14:24:32;18.20;65.40
59881;DHT22;45751;51.380;10.326;2023-05-10T14:26:59;18.10;65.70
59881;DHT22;45751;51.380;10.326;2023-05-10T14:29:26;18.10;66.30
59881;DHT22;45751;51.380;10.326;2023-05-10T14:31:53;18.10;67.10
59881;DHT22;45751;51.380;10.326;2023-05-10T14:34:20;18.00;67.50
59881;DHT22;45751;51.380;10.326;2023-05-10T14:36:47;18.00;65.70
59881;DHT22;45751;51.380;10.326;2023-05-10T14:39:14;17.90;65.10
59881;DHT22;45751;51.380;10.326;2023-05-10T14:41:41;17.90;65.60
59881;DHT22;45751;51.380;10.326;2023-05-10T14:44:09;17.90;66.30
59881;DHT22;45751;51.380;10.326;2023-05-10T14:46:36;17.90;65.60
59881;DHT22;45751;51.380;10.326;2023-05-10T14:49:03;17.80;65.40
59881;DHT22;45751;51.380;10.326;2023-05-10T14:51:30;17.80;65.80
59881;DHT22;45751;51.380;10.326;2023-05-10T14:53:58;17.80;65.90
59881;DHT22;45751;51.380;10.326;2023-05-10T14:56:25;17.80;66.30
59881;DHT22;45751;51.380;10.326;2023-05-10T14:58:52;17.80;66.80
59881;DHT22;45751;51.380;10.326;2023-05-10T15:01:20;17.80;67.40
59881;DHT22;45751;51.380;10.326;2023-05-10T15:03:47;17.90;68.80
59881;DHT22;45751;51.380;10.326;2023-05-10T15:06:15;18.00;68.00
59881;DHT22;45751;51.380;10.326;2023-05-10T15:08:44;17.90;67.60
59881;DHT22;45751;51.380;10.326;2023-05-10T15:11:11;18.00;67.20
59881;DHT22;45751;51.380;10.326;2023-05-10T15:13:38;18.00;66.70
59881;DHT22;45751;51.380;10.326;2023-05-10T15:16:05;18.00;66.10
59881;DHT22;45751;51.380;10.326;2023-05-10T15:18:32;17.90;66.40
59881;DHT22;45751;51.380;10.326;2023-05-10T15:20:59;17.90;67.20
59881;DHT22;45751;51.380;10.326;2023-05-10T15:23:26;17.90;66.60
59881;DHT22;45751;51.380;10.326;2023-05-10T15:25:53;17.80;66.60
59881;DHT22;45751;51.380;10.326;2023-05-10T15:28:22;17.70;66.90
59881;DHT22;45751;51.380;10.326;2023-05-10T15:30:49;17.70;70.40
59881;DHT22;45751;51.380;10.326;2023-05-10T15:33:16;17.60;74.70
59881;DHT22;45751;51.380;10.326;2023-05-10T15:35:43;17.40;77.10
59881;DHT22;45751;51.380;10.326;2023-05-10T15:38:10;17.20;78.60
59881;DHT22;45751;51.380;10.326;2023-05-10T15:40:37;17.00;81.60
59881;DHT22;45751;51.380;10.326;2023-05-10T15:43:04;16.90;83.00
59881;DHT22;45751;51.380;10.326;2023-05-10T15:45:31;16.80;85.30
59881;DHT22;45751;51.380;10.326;2023-05-10T15:48:02;16.60;89.30
59881;DHT22;45751;51.380;10.326;2023-05-10T15:50:29;16.50;92.00
59881;DHT22;45751;51.380;10.326;2023-05-10T15:52:56;16.40;95.40